Flight Track Log - Related Links

Times and Time Zones

All times are in EDT time to prevent confusion due to time zone crossing. See the EJA922 flight status page for this flight to view local times or setup timezone preferences in your user account.

Time Position Orientation Groundspeed Altitude Reporting Facility
EDT Latitude Longitude Course Direction KTS MPH feet Rate Location/Type
Fri 09:12:39 AM 44.8744 -93.1517 94° East 205 236 3,100  Level Minneapolis Center
Fri 09:13:41 AM 44.8636 -93.0544 99° East 245 282 7,100 3,073 Climbing Minneapolis Center
Fri 09:14:42 AM 44.8603 -92.9442 92° East 282 325 9,400 2,244 Climbing Minneapolis Center
Fri 09:15:44 AM 44.8567 -92.8200 92° East 316 364 11,700 2,129 Climbing Minneapolis Center
Fri 09:16:46 AM 44.8478 -92.6483 94° East 367 422 13,800 1,951 Climbing Minneapolis Center
Fri 09:17:47 AM 44.8403 -92.4928 94° East 398 458 15,700 1,869 Climbing Minneapolis Center
Fri 09:18:00 AM 44.8233 -92.1279 94° East  Level Estimated
Fri 09:18:48 AM 44.8317 -92.3322 94° East 409 471 17,600  Level Minneapolis Center
Fri 09:20:02 AM 44.8233 -92.1708 94° East 413 475 19,100 1,412 Climbing Minneapolis Center
Fri 09:21:04 AM 44.8128 -91.9708 94° East 422 486 20,800 1,463 Climbing Minneapolis Center
Fri 09:22:05 AM 44.8031 -91.8006 95° East 432 497 22,100 1,268 Climbing Minneapolis Center
Fri 09:23:07 AM 44.7936 -91.6275 94° East 439 505 23,400 1,268 Climbing Minneapolis Center
Fri 09:24:08 AM 44.7836 -91.4514 95° East 449 517 24,700 1,279 Climbing Minneapolis Center
Fri 09:25:09 AM 44.7728 -91.2703 95° East 459 528 26,000 1,366 Climbing Minneapolis Center
Fri 09:26:11 AM 44.7603 -91.0517 95° East 467 537 27,500 1,366 Climbing Minneapolis Center
Fri 09:27:12 AM 44.7467 -90.8672 96° East 474 545 28,800 1,268 Climbing Minneapolis Center
Fri 09:28:14 AM 44.7344 -90.6797 95° East 481 554 30,100 1,317 Climbing Minneapolis Center
Fri 09:29:15 AM 44.7239 -90.5097 95° East 481 554 31,500 1,707 Climbing Minneapolis Center
Fri 09:30:17 AM 44.7089 -90.2847 95° East 483 556 33,600 1,951 Climbing Minneapolis Center
Fri 09:31:18 AM 44.6961 -90.1000 95° East 478 550 35,500 1,951 Climbing Minneapolis Center
Fri 09:32:20 AM 44.6831 -89.9164 96° East 475 547 37,600 1,854 Climbing Minneapolis Center
Fri 09:33:21 AM 44.6700 -89.7339 96° East 472 543 39,300 1,244 Climbing Minneapolis Center
Fri 09:34:35 AM 44.6569 -89.5503 96° East 475 547 40,400 750 Climbing Minneapolis Center
Fri 09:35:37 AM 44.6392 -89.3225 96° East 490 564 41,000 293 Climbing Minneapolis Center
Fri 09:36:38 AM 44.6236 -89.1269 96° East 504 580 41,000  Level Minneapolis Center
Fri 09:37:40 AM 44.6047 -88.8847 96° East 521 600 41,000  Level Minneapolis Center
Fri 09:38:41 AM 44.5883 -88.6847 96° East 518 596 41,000  Level Minneapolis Center
Fri 09:39:43 AM 44.5717 -88.4839 97° East 521 600 41,000  Level Minneapolis Center
Fri 09:40:45 AM 44.5558 -88.2928 97° East 519 597 41,000  Level Minneapolis Center
Fri 09:41:46 AM 44.5381 -88.0922 97° East 520 598 41,000  Level Minneapolis Center
Fri 09:42:48 AM 44.5186 -87.8922 98° East 520 598 41,000  Level Minneapolis Center
Fri 09:43:50 AM 44.4961 -87.6519 97° East 520 598 41,000  Level Minneapolis Center
Fri 09:44:51 AM 44.4789 -87.4519 97° East 520 598 41,000  Level Minneapolis Center
Fri 09:45:53 AM 44.4592 -87.2519 98° East 521 600 41,000  Level Minneapolis Center
Fri 09:46:54 AM 44.4436 -87.0922 98° East 521 600 41,000  Level Minneapolis Center
Fri 09:48:09 AM 44.4203 -86.8544 98° East 518 596 41,000  Level Minneapolis Center
Fri 09:49:11 AM 44.3958 -86.6153 98° East 521 600 41,000  Level Minneapolis Center
Fri 09:50:12 AM 44.3717 -86.3781 98° East 520 598 41,000  Level Minneapolis Center
Fri 09:51:14 AM 44.3514 -86.1781 98° East 524 603 41,000  Level Minneapolis Center
Fri 09:52:16 AM 44.3303 -85.9794 98° East 524 603 41,000  Level Minneapolis Center
Fri 09:53:30 AM 44.3089 -85.7806 98° East 524 603 41,000  Level Minneapolis Center
Fri 09:54:32 AM 44.2833 -85.5417 98° East 524 603 41,000  Level Minneapolis Center
Fri 09:55:34 AM 44.2564 -85.3028 99° East 523 602 41,000  Level Minneapolis Center
Fri 09:56:36 AM 44.2342 -85.1036 99° East 523 602 41,000  Level Minneapolis Center
Fri 09:57:38 AM 44.2114 -84.9042 99° East 524 603 41,000  Level Minneapolis Center
Fri 09:58:39 AM 44.1872 -84.7047 100° East 525 604 41,000  Level Minneapolis Center
Fri 09:59:41 AM 44.1622 -84.5044 100° East 529 609 41,000  Level Minneapolis Center
Fri 10:00:43 AM 44.1386 -84.3064 99° East 522 601 41,000  Level Minneapolis Center
Fri 10:01:45 AM 44.1086 -84.0703 100° East 519 597 41,000  Level Minneapolis Center
Fri 10:02:47 AM 44.0842 -83.8736 100° East 518 596 41,000  Level Minneapolis Center
Fri 10:03:48 AM 44.0614 -83.6772 99° East 516 594 41,000  Level Minneapolis Center
Fri 10:04:50 AM 44.0369 -83.4753 99° East 522 601 41,000  Level Minneapolis Center
Fri 10:05:52 AM 44.0103 -83.2742 100° East 527 606 41,000  Level Minneapolis Center
Fri 10:06:54 AM 43.9831 -83.0736 101° East 530 610 41,000  Level Minneapolis Center
Fri 10:07:56 AM 43.9556 -82.8708 101° East 533 613 41,000  Level Minneapolis Center
Fri 10:08:57 AM 43.9225 -82.6297 101° East 533 613 41,000  Level Minneapolis Center
Fri 10:09:59 AM 43.8964 -82.4300 100° East 530 610 41,000  Level Minneapolis Center
Fri 10:10:37 AM 43.8667 -82.3000 108° East 530 610 41,000  Level Toronto Center
Fri 10:11:37 AM 43.8333 -82.1000 103° East 530 610 41,000  Level Toronto Center
Fri 10:12:37 AM 43.8167 -81.8667 96° East 530 610 41,000  Level Toronto Center
Fri 10:13:37 AM 43.7833 -81.6833 104° East 530 610 41,000  Level Toronto Center
Fri 10:14:37 AM 43.7500 -81.5000 104° East 530 610 41,000  Level Toronto Center
Fri 10:15:37 AM 43.7167 -81.3000 103° East 530 610 41,000  Level Toronto Center
Fri 10:16:37 AM 43.6833 -81.0833 102° East 530 610 41,000  Level Toronto Center
Fri 10:17:37 AM 43.6500 -80.8833 103° East 530 610 41,000  Level Toronto Center
Fri 10:18:37 AM 43.6333 -80.7000 97° East 540 621 41,000  Level Toronto Center
Fri 10:19:37 AM 43.6000 -80.4833 102° East 540 621 41,000  Level Toronto Center
Fri 10:20:37 AM 43.5667 -80.2833 103° East 530 610 41,000  Level Toronto Center
Fri 10:21:37 AM 43.5333 -80.0667 102° East 540 621 41,000  Level Toronto Center
Fri 10:22:37 AM 43.5000 -79.8833 104° East 540 621 41,000  Level Toronto Center
Fri 10:23:37 AM 43.4667 -79.6833 103° East 540 621 41,000  Level Toronto Center
Fri 10:24:37 AM 43.4333 -79.4667 102° East 540 621 41,000  Level Toronto Center
Fri 10:25:37 AM 43.4000 -79.2833 104° East 540 621 41,000  Level Toronto Center
Fri 10:26:37 AM 43.3667 -79.0833 103° East 540 621 41,000  Level Toronto Center
Fri 10:27:37 AM 43.3333 -78.8833 103° East 530 610 41,000  Level Toronto Center
Fri 10:28:37 AM 43.3000 -78.6667 102° East 530 610 41,000  Level Toronto Center
Fri 10:29:37 AM 43.2500 -78.4833 110° East 540 621 41,000  Level Toronto Center
Fri 10:30:37 AM 43.2167 -78.2833 103° East 530 610 41,000  Level Toronto Center
Fri 10:31:37 AM 43.1833 -78.0833 103° East 540 621 41,000  Level Toronto Center
Fri 10:32:37 AM 43.1500 -77.9000 104° East 540 621 41,000 -450 Level Toronto Center
Fri 10:33:37 AM 43.1167 -77.7000 103° East 540 621 40,100 -950 Descending Toronto Center
Fri 10:34:37 AM 43.0667 -77.4833 107° East 540 621 39,100 -978 Descending Toronto Center
Fri 10:35:52 AM 43.0222 -77.3003 108° East 528 608 37,900 -1,033 Descending Cleveland Center
Fri 10:37:37 AM 42.9167 -76.9167 110° East 530 610 36,000 -971 Descending Toronto Center
Fri 10:38:08 AM 42.9100 -76.8744 102° East 519 597 35,700 -652 Descending Boston Center
Fri 10:39:09 AM 42.8589 -76.6836 110° East 524 603 35,000 -347 Descending Boston Center
Fri 10:40:09 AM 42.8119 -76.4908 108° East 524 603 35,000  Level Boston Center
Fri 10:41:10 AM 42.7578 -76.3033 111° Southeast 530 610 35,000 -763 Level Boston Center
Fri 10:42:07 AM 42.7225 -76.1144 104° East 530 610 33,500 -1,627 Descending Boston Center
Fri 10:43:08 AM 42.6911 -75.9178 102° East 525 604 31,800 -2,066 Descending Boston Center
Fri 10:44:09 AM 42.6553 -75.7181 104° East 525 604 29,300 -2,459 Descending Boston Center
Fri 10:45:10 AM 42.6233 -75.5214 102° East 531 611 26,800 -2,471 Descending Boston Center
Fri 10:46:08 AM 42.5928 -75.3367 103° East 524 603 24,400 -2,441 Descending Boston Center
Fri 10:47:08 AM 42.5617 -75.1547 103° East 511 588 22,000 -1,750 Descending Boston Center
Fri 10:48:08 AM 42.5325 -74.9761 102° East 496 571 20,900 -1,041 Descending Boston Center
Fri 10:49:09 AM 42.5008 -74.8028 104° East 477 549 19,900 -992 Descending Boston Center
Fri 10:50:09 AM 42.4778 -74.6078 99° East 472 543 18,900 -942 Descending Boston Center
Fri 10:51:10 AM 42.4808 -74.4333 89° East 461 531 18,000 -458 Descending Boston Center
Fri 10:52:07 AM 42.4733 -74.2614 93° East 455 524 18,000 -458 Level Boston Center
Fri 10:53:08 AM 42.4447 -74.0944 103° East 455 524 17,100 -496 Descending Boston Center
Fri 10:54:08 AM 42.4197 -73.9447 103° East 448 516 17,000 -50 Descending Boston Center
Fri 10:55:08 AM 42.3864 -73.7639 104° East 453 521 17,000  Level Boston Center
Fri 10:56:09 AM 42.3611 -73.6144 103° East 453 521 17,000 -595 Level Boston Center
Fri 10:57:09 AM 42.3294 -73.4342 103° East 453 521 15,800 -2,000 Descending Boston Center
Fri 10:57:12 AM 42.3253 -73.4200 112° Southeast 447 514 14,900 -2,951 Descending Boston Center
Fri 10:58:10 AM 42.3056 -73.2767 100° East 437 503 12,800 -2,139 Descending Boston Center
Fri 10:59:07 AM 42.2375 -73.1803 134° Southeast 389 448 10,800 -1,440 Descending Boston Center
Fri 10:59:50 AM 42.1669 -73.1347 154° Southeast 324 373 10,400 -787 Descending Boston Center
Fri 11:00:08 AM 42.1483 -73.1178 146° Southeast 346 398 10,000 -1,800 Descending Boston Center
Fri 11:01:00 AM 42.0861 -73.0611 146° Southeast 288 331 8,300 -1,770 Descending Boston Center
Fri 11:01:09 AM 42.0881 -73.0556 65° Northeast 307 353 8,200 -1,424 Descending Boston Center
Fri 11:01:59 AM 42.0303 -72.9878 139° Southeast 282 325 6,900 -1,322 Descending Boston Center
Fri 11:02:08 AM 42.0303 -72.9794 90° East 296 341 6,900 -1,574 Level Boston Center
Fri 11:03:00 AM 41.9764 -72.9175 139° Southeast 266 306 5,300 -1,672 Descending Boston Center
Fri 11:03:09 AM 41.9742 -72.9092 110° East 285 328 5,200 -1,200 Descending Boston Center
Fri 11:04:00 AM 41.9308 -72.8558 138° Southeast 225 259 4,100 -1,200 Descending Boston Center
Fri 11:04:09 AM 41.9308 -72.8447 90° East 261 300 4,000 -857 Descending Boston Center
Fri 11:05:10 AM 41.8892 -72.7942 138° Southeast 227 261 3,100 -991 Descending Boston Center
Fri 11:06:04 AM 41.8581 -72.7550 137° Southeast 155 178 2,100 -1,000 Descending Boston Center
Fri 11:06:10 AM 41.8581 -72.7494 90° East 188 216 2,100 -484 Level Boston Center
Fri 11:07:06 AM 41.8625 -72.7050 82° East 131 151 1,600 -610 Descending Boston Center
Fri 11:07:09 AM 41.8603 -72.6994 118° Southeast 130 150 1,500 -333 Descending Boston Center
Fri 11:08:00 AM 41.8811 -72.6714 45° Northeast 128 147 1,300 -200 Descending Boston Center
Fri 11:08:09 AM 41.8603 -72.6519 145° Southeast 124 143 1,300 -712 Level Boston Center
Fri 11:08:59 AM 41.9125 -72.6633 351° North 121 139 600 9,864 Descending Boston Center
Fri 11:09:08 AM 41.8564 -72.6100 145° Southeast 124 143 11,000 9,043 Climbing Boston Center
Fri 11:10:08 AM 41.8500 -72.5683 102° East 124 143 11,000  Level Boston Center
Fri 11:11:10 AM 41.8461 -72.5264 97° East 124 143 11,000  Level Boston Center
Fri 11:12:10 AM 41.8419 -72.5014 103° East 124 143 11,000  Level Boston Center

Login

Don't have an account? Register now (free) for customized features, flight alerts, and more!